Time;durP1;ratioP1;P1;durP2;ratioP2;P2;SDS_P1;SDS_P2;PMS_P1;PMS_P2;Temp;Humidity;BMP_temperature;BMP_pressure;BME280_temperature;BME280_humidity;BME280_pressure;Samples;Min_cycle;Max_cycle;Signal;HPM_P1;HPM_P2
2022/05/09 00:01:51;;;;;;;0.10;0.10;;;;;;;21.11;41.41;102251.59;5133719;27;20046;-30
2022/05/09 00:04:17;;;;;;;0.10;0.10;;;;;;;21.12;41.34;102256.06;5139486;27;20502;-30
2022/05/09 00:06:44;;;;;;;0.10;0.10;;;;;;;21.11;41.32;102252.41;5136703;27;20051;-29
2022/05/09 00:09:10;;;;;;;0.10;0.10;;;;;;;21.11;41.29;102246.88;5134030;27;20085;-30
2022/05/09 00:11:36;;;;;;;0.10;0.10;;;;;;;21.12;41.21;102256.06;5134033;27;20111;-30
2022/05/09 00:14:02;;;;;;;0.10;0.10;;;;;;;21.12;41.17;102244.97;5133941;27;20062;-32
2022/05/09 00:16:33;;;;;;;0.10;0.10;;;;;;;21.11;41.30;102237.72;5132000;27;20481;-31
2022/05/09 00:19:02;;;;;;;0.10;0.10;;;;;;;21.10;41.18;102239.66;5132376;27;20096;-30
2022/05/09 00:21:30;;;;;;;0.10;0.10;;;;;;;21.11;41.18;102241.34;5135062;27;20464;-30
2022/05/09 00:23:57;;;;;;;0.10;0.10;;;;;;;21.11;41.34;102237.72;5114178;27;20100;-30
2022/05/09 00:26:22;;;;;;;0.10;0.10;;;;;;;21.11;41.16;102232.19;5139454;27;20067;-30
2022/05/09 00:28:48;;;;;;;0.10;0.10;;;;;;;21.11;41.23;102235.78;5136261;27;20053;-30
2022/05/09 00:31:13;;;;;;;0.10;0.10;;;;;;;21.11;41.18;102237.72;5132283;27;20072;-30
2022/05/09 00:33:39;;;;;;;0.10;0.10;;;;;;;21.11;41.22;102237.72;5133896;27;20035;-31
2022/05/09 00:36:05;;;;;;;0.10;0.10;;;;;;;21.11;41.23;102241.34;5136868;27;20047;-31
2022/05/09 00:38:31;;;;;;;0.10;0.10;;;;;;;21.11;41.39;102240.50;5135180;27;20078;-30
2022/05/09 00:43:42;;;;;;;0.10;0.10;;;;;;;21.10;41.41;102234.13;5121808;27;20119;-30
2022/05/09 00:46:08;;;;;;;0.10;0.10;;;;;;;21.10;41.24;102234.13;5133693;27;21140;-30
2022/05/09 00:48:35;;;;;;;0.10;0.10;;;;;;;21.10;41.43;102236.91;5132759;27;20070;-30
2022/05/09 00:51:01;;;;;;;0.10;0.10;;;;;;;21.10;41.43;102230.53;5125932;27;20054;-30
2022/05/09 00:53:29;;;;;;;0.10;0.10;;;;;;;21.09;41.32;102229.69;5139725;27;20043;-30
2022/05/09 00:55:58;;;;;;;0.10;0.10;;;;;;;21.10;41.20;102233.31;5131427;27;20138;-30
2022/05/09 00:58:28;;;;;;;0.20;0.20;;;;;;;21.10;41.39;102227.75;5134412;27;20181;-29
2022/05/09 01:00:55;;;;;;;0.10;0.10;;;;;;;21.10;41.44;102227.75;5130735;27;20131;-30
2022/05/09 01:03:29;;;;;;;0.10;0.10;;;;;;;21.11;41.29;102234.97;5131738;27;20035;-27
2022/05/09 01:05:55;;;;;;;0.10;0.10;;;;;;;21.09;41.42;102226.94;5114881;27;20134;-28
2022/05/09 01:08:21;;;;;;;0.10;0.10;;;;;;;21.10;41.18;102223.06;5130693;27;20058;-28
2022/05/09 01:10:47;;;;;;;0.10;0.10;;;;;;;21.09;41.37;102229.69;5115851;27;20130;-28
2022/05/09 01:13:15;;;;;;;0.10;0.10;;;;;;;21.09;41.33;102217.78;5136938;27;20101;-29
2022/05/09 01:15:41;;;;;;;0.10;0.10;;;;;;;21.09;41.40;102223.31;5135172;27;20157;-30
2022/05/09 01:18:09;;;;;;;0.10;0.10;;;;;;;21.10;41.50;102223.06;5129287;27;20472;-30
2022/05/09 01:20:34;;;;;;;0.10;0.10;;;;;;;21.09;41.60;102224.16;5133838;27;20072;-31
2022/05/09 01:23:00;;;;;;;0.10;0.10;;;;;;;21.08;41.39;102219.72;5131073;27;20035;-31
2022/05/09 01:25:29;;;;;;;0.10;0.10;;;;;;;21.09;41.18;102221.38;5137559;27;20046;-31
2022/05/09 01:27:55;;;;;;;0.10;0.10;;;;;;;21.10;41.28;102222.22;5135220;27;20095;-30
2022/05/09 01:30:33;;;;;;;0.10;0.10;;;;;;;21.08;41.42;102214.19;5132673;27;20760;-31
2022/05/09 01:33:12;;;;;;;0.10;0.10;;;;;;;21.09;41.31;102218.63;5130944;27;20487;-30
2022/05/09 01:35:55;;;;;;;0.10;0.10;;;;;;;21.08;41.51;102216.97;5120626;27;20126;-30
2022/05/09 01:38:45;;;;;;;0.10;0.10;;;;;;;21.09;41.24;102218.63;5111251;27;20474;-30
2022/05/09 01:41:11;;;;;;;0.10;0.10;;;;;;;21.08;41.42;102211.41;5122263;27;20482;-30
2022/05/09 01:43:40;;;;;;;0.10;0.10;;;;;;;21.08;41.48;102216.97;5132123;27;20043;-31
2022/05/09 01:46:09;;;;;;;0.10;0.10;;;;;;;21.09;41.23;102212.25;5130329;27;20185;-30
2022/05/09 01:51:20;;;;;;;0.10;0.10;;;;;;;21.09;41.27;102215.00;5117813;27;20074;-32
2022/05/09 01:53:50;;;;;;;0.10;0.10;;;;;;;21.08;41.24;102205.88;5115626;27;20080;-31
2022/05/09 01:56:18;;;;;;;0.10;0.10;;;;;;;21.08;41.17;102211.41;5130927;27;20489;-30
2022/05/09 01:58:43;;;;;;;0.10;0.10;;;;;;;21.09;41.17;102212.25;5099568;28;20177;-30
2022/05/09 02:01:09;;;;;;;0.10;0.10;;;;;;;21.08;41.40;102207.81;5133302;27;20056;-31
2022/05/09 02:03:35;;;;;;;0.10;0.10;;;;;;;21.08;41.58;102211.41;5132446;27;20200;-30
2022/05/09 02:06:01;;;;;;;0.10;0.10;;;;;;;21.08;41.21;102207.81;5134630;27;20521;-30
2022/05/09 02:08:27;;;;;;;0.10;0.10;;;;;;;21.08;41.41;102211.41;5134953;27;20081;-30
2022/05/09 02:10:53;;;;;;;0.10;0.10;;;;;;;21.07;41.30;102212.53;5134256;27;20381;-30
2022/05/09 02:13:18;;;;;;;0.10;0.10;;;;;;;21.08;41.46;102216.97;5134259;27;20385;-30
2022/05/09 02:15:44;;;;;;;0.10;0.10;;;;;;;21.06;41.51;102208.06;5132186;27;20058;-30
2022/05/09 02:18:10;;;;;;;0.10;0.10;;;;;;;21.07;41.41;102200.56;5134993;27;20035;-30
2022/05/09 02:20:36;;;;;;;0.10;0.10;;;;;;;21.07;41.22;102206.97;5130925;27;20095;-30
2022/05/09 02:23:01;;;;;;;0.10;0.10;;;;;;;21.08;41.39;102205.88;5130788;27;20450;-30
2022/05/09 02:25:29;;;;;;;0.10;0.10;;;;;;;21.07;41.44;102201.44;5134563;27;20051;-32
2022/05/09 02:27:56;;;;;;;0.10;0.10;;;;;;;21.08;41.40;102199.50;5133415;27;20071;-30
2022/05/09 02:30:22;;;;;;;0.10;0.10;;;;;;;21.07;41.20;102200.56;5132017;27;20243;-31
2022/05/09 02:32:48;;;;;;;0.10;0.10;;;;;;;21.06;41.27;102199.75;5132543;27;20279;-31
2022/05/09 02:35:14;;;;;;;0.10;0.10;;;;;;;21.07;41.47;102203.34;5132718;27;20073;-30
2022/05/09 02:37:40;;;;;;;0.10;0.10;;;;;;;21.06;41.27;102194.22;5133241;27;20047;-31
2022/05/09 02:40:07;;;;;;;0.52;0.20;;;;;;;21.07;41.35;102197.81;5131571;27;20085;-30
2022/05/09 02:42:34;;;;;;;0.15;0.15;;;;;;;21.07;41.63;102197.81;5111627;27;20067;-30
2022/05/09 02:45:00;;;;;;;0.20;0.20;;;;;;;21.05;41.45;102196.16;5133230;27;20069;-30
2022/05/09 02:47:26;;;;;;;0.10;0.10;;;;;;;21.06;41.33;102191.44;5136905;27;20093;-29
2022/05/09 02:49:53;;;;;;;0.20;0.20;;;;;;;21.06;41.41;102196.97;5127962;27;20133;-30
2022/05/09 02:52:18;;;;;;;0.10;0.10;;;;;;;21.08;41.37;102196.72;5131639;27;20543;-29
2022/05/09 02:54:44;;;;;;;0.10;0.10;;;;;;;21.06;41.35;102199.75;5132561;27;20055;-29
2022/05/09 02:57:11;;;;;;;0.10;0.10;;;;;;;21.06;41.25;102196.97;5135091;27;20077;-30
2022/05/09 02:59:37;;;;;;;0.10;0.10;;;;;;;21.06;41.53;102194.22;5130321;27;20067;-30
2022/05/09 03:02:02;;;;;;;0.10;0.10;;;;;;;21.05;41.38;102184.22;5132623;27;20043;-29
2022/05/09 03:04:45;;;;;;;0.10;0.10;;;;;;;21.06;41.26;102194.22;5134332;27;20066;-29
2022/05/09 03:07:13;;;;;;;0.10;0.10;;;;;;;21.05;41.37;102189.78;5126875;27;20146;-30
2022/05/09 03:09:41;;;;;;;0.10;0.10;;;;;;;21.05;41.28;102195.31;5129753;27;20073;-31
2022/05/09 03:12:07;;;;;;;0.10;0.10;;;;;;;21.06;41.34;102185.91;5114154;27;20078;-30
2022/05/09 03:14:34;;;;;;;0.10;0.10;;;;;;;21.05;41.47;102193.38;5138062;27;20444;-30
2022/05/09 03:17:00;;;;;;;0.10;0.10;;;;;;;21.05;41.24;102193.38;5132152;27;20089;-30
2022/05/09 03:19:25;;;;;;;0.20;0.20;;;;;;;21.06;41.43;102202.50;5134807;27;20457;-30
2022/05/09 03:21:51;;;;;;;0.10;0.10;;;;;;;21.05;41.25;102187.00;5128503;27;20051;-30
2022/05/09 03:24:17;;;;;;;0.10;0.10;;;;;;;21.05;41.58;102195.31;5131116;27;20087;-30
2022/05/09 03:26:43;;;;;;;0.10;0.10;;;;;;;21.05;41.15;102187.00;5112350;27;20126;-30
2022/05/09 03:29:09;;;;;;;0.10;0.10;;;;;;;21.05;41.38;102190.59;5135256;27;20073;-30
2022/05/09 03:31:39;;;;;;;0.10;0.10;;;;;;;21.05;41.39;102185.06;5138441;27;20370;-31
2022/05/09 03:34:05;;;;;;;0.10;0.10;;;;;;;21.04;41.26;102188.94;5139527;27;20087;-31
2022/05/09 03:36:31;;;;;;;0.10;0.10;;;;;;;21.05;41.26;102182.28;5136270;27;20050;-30
2022/05/09 03:38:57;;;;;;;0.10;0.10;;;;;;;21.05;41.27;102182.28;5136073;27;20066;-28
2022/05/09 03:41:23;;;;;;;0.10;0.10;;;;;;;21.05;41.45;102187.84;5134215;27;20073;-30
2022/05/09 03:43:49;;;;;;;0.10;0.10;;;;;;;21.06;41.33;102180.34;5142378;27;20051;-30
2022/05/09 03:46:15;;;;;;;0.10;0.10;;;;;;;21.05;41.29;102181.47;5134058;27;20360;-30
2022/05/09 03:48:41;;;;;;;0.10;0.10;;;;;;;21.04;41.48;102177.88;5134630;27;20043;-29
2022/05/09 03:51:06;;;;;;;0.10;0.10;;;;;;;21.05;41.48;102184.22;5136681;27;20631;-30
2022/05/09 03:53:32;;;;;;;0.10;0.10;;;;;;;21.05;41.44;102181.47;5133109;27;20046;-30
2022/05/09 03:55:59;;;;;;;0.10;0.10;;;;;;;21.04;41.52;102183.41;5139924;27;20047;-30
2022/05/09 03:58:25;;;;;;;0.10;0.10;;;;;;;21.04;41.47;102174.25;5135365;27;20368;-29
2022/05/09 04:00:51;;;;;;;0.10;0.10;;;;;;;21.04;41.28;102186.16;5135829;27;20122;-31
2022/05/09 04:03:17;;;;;;;0.10;0.10;;;;;;;21.04;41.20;102179.81;5139471;27;20433;-30
2022/05/09 04:05:43;;;;;;;0.10;0.10;;;;;;;21.04;41.28;102183.41;5136674;27;20050;-29
2022/05/09 04:08:11;;;;;;;0.10;0.10;;;;;;;21.04;41.42;102188.09;5134425;27;20074;-31
2022/05/09 04:10:40;;;;;;;0.10;0.10;;;;;;;21.04;41.26;102182.56;5132662;27;20067;-30
2022/05/09 04:13:06;;;;;;;0.10;0.10;;;;;;;21.03;41.53;102187.28;5135505;27;20137;-30
2022/05/09 04:18:19;;;;;;;0.10;0.10;;;;;;;21.04;41.44;102196.41;5101777;27;20046;-30
2022/05/09 04:20:46;;;;;;;0.10;0.10;;;;;;;21.04;41.44;102196.41;5121275;27;20074;-30
2022/05/09 04:23:12;;;;;;;0.10;0.10;;;;;;;21.04;41.54;102193.66;5135569;27;20086;-30
2022/05/09 04:25:37;;;;;;;0.13;0.13;;;;;;;21.03;41.33;102189.22;5139215;27;20039;-29
2022/05/09 04:28:06;;;;;;;0.10;0.10;;;;;;;21.04;41.44;102196.41;5135718;27;20095;-30
2022/05/09 04:30:34;;;;;;;0.10;0.10;;;;;;;21.04;41.37;102200.03;5114288;27;20082;-31
2022/05/09 04:32:59;;;;;;;0.10;0.10;;;;;;;21.03;41.31;102189.22;5135923;27;20078;-30
2022/05/09 04:35:25;;;;;;;0.20;0.20;;;;;;;21.03;41.56;102191.97;5139331;27;20490;-29
2022/05/09 04:37:53;;;;;;;0.10;0.10;;;;;;;21.02;41.46;102185.59;5133686;27;20091;-29
2022/05/09 04:40:22;;;;;;;0.10;0.10;;;;;;;21.03;41.41;102189.22;5132989;27;20466;-29
2022/05/09 04:42:48;;;;;;;0.10;0.10;;;;;;;21.03;41.35;102194.75;5135712;27;20490;-29
2022/05/09 04:45:14;;;;;;;0.20;0.20;;;;;;;21.02;41.39;102193.06;5139487;27;20110;-29
2022/05/09 04:47:40;;;;;;;0.10;0.10;;;;;;;21.04;41.32;102193.66;5117423;27;20597;-29
2022/05/09 04:50:08;;;;;;;0.10;0.10;;;;;;;21.03;41.28;102186.44;5133542;27;20122;-30
2022/05/09 04:52:34;;;;;;;0.10;0.10;;;;;;;21.04;41.30;102197.25;5135791;27;20088;-30
2022/05/09 04:55:00;;;;;;;0.10;0.10;;;;;;;21.03;41.19;102197.53;5141167;27;20127;-30
2022/05/09 04:57:26;;;;;;;0.10;0.10;;;;;;;21.03;41.38;102192.81;5133912;27;20397;-30
2022/05/09 04:59:51;;;;;;;0.30;0.30;;;;;;;21.02;41.42;102193.06;5132177;27;20062;-31
2022/05/09 05:02:17;;;;;;;0.10;0.10;;;;;;;21.02;41.50;102191.13;5135419;27;20045;-29
2022/05/09 05:04:43;;;;;;;0.10;0.10;;;;;;;21.03;41.04;102191.97;5134107;27;20473;-30
2022/05/09 05:07:09;;;;;;;0.10;0.10;;;;;;;21.02;41.23;102187.53;5135901;27;20131;-30
2022/05/09 05:09:35;;;;;;;0.10;0.10;;;;;;;21.03;41.32;102191.97;5132624;27;20035;-30
2022/05/09 05:12:02;;;;;;;0.10;0.10;;;;;;;21.02;41.46;102190.28;5133914;27;20118;-30
2022/05/09 05:14:28;;;;;;;0.10;0.10;;;;;;;21.03;41.28;102191.97;5132533;27;20095;-30
2022/05/09 05:17:00;;;;;;;0.10;0.10;;;;;;;21.02;41.56;102191.13;5134910;27;20058;-30
2022/05/09 05:19:28;;;;;;;0.10;0.10;;;;;;;21.02;41.35;102191.13;5128588;27;20281;-30
2022/05/09 05:21:54;;;;;;;0.10;0.10;;;;;;;21.02;41.53;102193.06;5134095;27;20514;-30
2022/05/09 05:24:19;;;;;;;0.20;0.20;;;;;;;21.02;41.45;102199.44;5134023;27;20042;-29
2022/05/09 05:26:45;;;;;;;0.10;0.10;;;;;;;21.01;41.23;102192.22;5130695;27;20093;-30
2022/05/09 05:29:11;;;;;;;0.10;0.10;;;;;;;21.01;41.50;102191.41;5133814;27;20046;-31
2022/05/09 05:31:41;;;;;;;0.20;0.20;;;;;;;21.02;41.42;102195.84;5128310;27;20131;-29
2022/05/09 05:34:06;;;;;;;0.10;0.10;;;;;;;21.01;41.28;102197.75;5132746;27;20129;-30
2022/05/09 05:36:32;;;;;;;0.10;0.10;;;;;;;21.02;41.29;102199.44;5134149;27;20056;-30
2022/05/09 05:38:58;;;;;;;0.10;0.10;;;;;;;21.02;41.24;102193.06;5129270;27;20043;-30
2022/05/09 05:41:23;;;;;;;0.10;0.10;;;;;;;21.01;41.53;102197.75;5133935;27;20062;-31
2022/05/09 05:43:49;;;;;;;0.10;0.10;;;;;;;21.02;41.19;102204.13;5131040;27;20047;-30
2022/05/09 05:46:15;;;;;;;0.10;0.10;;;;;;;21.01;41.14;102206.06;5134512;27;20043;-29
2022/05/09 05:48:41;;;;;;;0.10;0.10;;;;;;;21.01;41.32;102200.53;5131217;27;20038;-32
2022/05/09 05:51:07;;;;;;;0.10;0.10;;;;;;;21.02;41.09;102198.59;5133140;27;20111;-31
2022/05/09 05:53:34;;;;;;;0.10;0.10;;;;;;;21.00;41.48;102201.66;5135907;27;20035;-32
2022/05/09 05:56:01;;;;;;;0.10;0.10;;;;;;;21.01;41.25;102200.53;5135602;27;20123;-30
2022/05/09 05:58:28;;;;;;;0.10;0.10;;;;;;;21.03;41.04;102203.06;5130495;27;20087;-32
2022/05/09 06:00:55;;;;;;;0.10;0.10;;;;;;;21.02;41.21;102204.13;5130829;27;20049;-31
2022/05/09 06:03:21;;;;;;;0.10;0.10;;;;;;;21.02;41.36;102204.13;5123589;27;20320;-32
2022/05/09 06:05:47;;;;;;;0.10;0.10;;;;;;;21.01;41.14;102197.75;5121058;27;20315;-32
2022/05/09 06:08:13;;;;;;;0.10;0.10;;;;;;;21.01;41.00;102202.47;5116958;27;20050;-31
2022/05/09 06:10:39;;;;;;;0.10;0.10;;;;;;;21.02;41.07;102198.59;5125584;27;20054;-32
2022/05/09 06:13:09;;;;;;;0.10;0.10;;;;;;;21.01;41.32;102210.78;5126067;27;20053;-31
2022/05/09 06:15:36;;;;;;;0.10;0.10;;;;;;;21.01;41.11;102214.38;5123520;27;20074;-31
2022/05/09 06:18:05;;;;;;;0.10;0.10;;;;;;;21.01;41.26;102211.63;5119349;27;20047;-31
2022/05/09 06:20:32;;;;;;;0.10;0.10;;;;;;;21.00;41.10;102209.94;5127969;27;20035;-32
2022/05/09 06:22:59;;;;;;;0.10;0.10;;;;;;;21.01;41.26;102210.78;5124409;27;20070;-30
2022/05/09 06:25:26;;;;;;;0.10;0.10;;;;;;;21.01;41.39;102214.38;5130227;27;20121;-32
2022/05/09 06:27:53;;;;;;;0.10;0.10;;;;;;;21.01;41.12;102213.56;5125691;27;20474;-31
2022/05/09 06:30:20;;;;;;;0.10;0.10;;;;;;;21.02;41.06;102212.44;5124504;27;20470;-31
2022/05/09 06:32:46;;;;;;;0.10;0.10;;;;;;;20.99;41.10;102208.28;5125636;27;20146;-31
2022/05/09 06:35:14;;;;;;;0.10;0.10;;;;;;;21.02;41.32;102212.44;5108427;27;20646;-31
2022/05/09 06:37:41;;;;;;;0.17;0.17;;;;;;;21.00;41.08;102206.34;5114119;27;20093;-31
2022/05/09 06:40:08;;;;;;;0.10;0.10;;;;;;;21.01;41.29;102208.00;5127954;27;20135;-31
2022/05/09 06:42:35;;;;;;;0.10;0.10;;;;;;;21.01;41.12;102210.78;5128160;27;20043;-32
2022/05/09 06:45:01;;;;;;;0.10;0.10;;;;;;;21.01;41.07;102208.84;5110388;27;20434;-31
2022/05/09 06:47:27;;;;;;;0.10;0.10;;;;;;;21.00;41.24;102206.34;5127973;27;20474;-33
2022/05/09 06:49:53;;;;;;;0.10;0.10;;;;;;;21.00;41.10;102207.19;5110121;27;20134;-31
2022/05/09 06:52:18;;;;;;;0.10;0.10;;;;;;;21.00;40.91;102207.19;5104253;27;20046;-31
2022/05/09 06:54:44;;;;;;;0.10;0.10;;;;;;;21.00;41.10;102218.25;5120053;27;20039;-30
2022/05/09 06:57:10;;;;;;;0.10;0.10;;;;;;;21.01;41.03;102211.63;5108151;27;20529;-31
2022/05/09 06:59:35;;;;;;;0.10;0.10;;;;;;;21.00;41.06;102207.19;5114001;27;20066;-31
2022/05/09 07:02:01;;;;;;;0.10;0.10;;;;;;;21.01;41.23;102217.16;5119500;27;20203;-32
2022/05/09 07:04:28;;;;;;;0.10;0.10;;;;;;;21.02;40.95;102216.03;5095694;27;20047;-31
2022/05/09 07:06:53;;;;;;;0.10;0.10;;;;;;;21.00;41.15;102207.19;5099042;27;20858;-31
2022/05/09 07:09:19;;;;;;;0.10;0.10;;;;;;;21.01;41.15;102206.06;5117034;27;20079;-32
2022/05/09 07:11:45;;;;;;;0.20;0.20;;;;;;;21.01;41.31;102211.63;5113682;27;20110;-32
2022/05/09 07:14:11;;;;;;;0.10;0.10;;;;;;;21.01;40.97;102202.47;5116747;27;20676;-33
2022/05/09 07:16:36;;;;;;;0.10;0.10;;;;;;;21.02;41.12;102195.84;5121427;27;20061;-32
2022/05/09 07:19:04;;;;;;;0.10;0.10;;;;;;;21.01;40.99;102199.69;5118349;27;20039;-31
2022/05/09 07:21:30;;;;;;;0.10;0.10;;;;;;;21.02;40.88;102196.66;5123838;27;20070;-33
2022/05/09 07:23:55;;;;;;;0.10;0.10;;;;;;;21.02;41.17;102198.59;5117961;27;20337;-31
2022/05/09 07:26:21;;;;;;;0.10;0.10;;;;;;;21.00;40.95;102196.09;5123503;27;20050;-32
2022/05/09 07:28:47;;;;;;;0.10;0.10;;;;;;;21.02;40.75;102188.34;5121887;27;20050;-30
2022/05/09 07:31:13;;;;;;;0.10;0.10;;;;;;;21.02;41.25;102195.84;5108381;27;20047;-31
2022/05/09 07:33:38;;;;;;;0.10;0.10;;;;;;;21.01;41.33;102194.16;5123083;27;20464;-30
2022/05/09 07:36:05;;;;;;;0.10;0.10;;;;;;;21.01;41.22;102191.41;5126321;27;20059;-31
2022/05/09 07:38:30;;;;;;;0.20;0.20;;;;;;;21.01;41.26;102192.22;5126901;27;21321;-32
2022/05/09 07:40:56;;;;;;;0.10;0.10;;;;;;;21.01;40.97;102188.63;5127142;27;20047;-34
2022/05/09 07:43:25;;;;;;;0.10;0.10;;;;;;;21.01;40.95;102192.22;5102967;27;20047;-31
2022/05/09 07:45:52;;;;;;;0.10;0.10;;;;;;;21.01;40.87;102196.94;5119777;27;20138;-31
2022/05/09 07:48:19;;;;;;;0.15;0.15;;;;;;;21.01;40.99;102191.41;5126416;27;20078;-30
2022/05/09 07:50:46;;;;;;;0.10;0.10;;;;;;;21.02;41.11;102193.06;5112112;27;20046;-31
2022/05/09 07:53:14;;;;;;;0.10;0.10;;;;;;;21.01;40.91;102189.47;5124668;27;20117;-32
2022/05/09 07:55:41;;;;;;;0.10;0.10;;;;;;;21.02;41.09;102193.06;5122930;27;20137;-31
2022/05/09 07:58:07;;;;;;;0.15;0.15;;;;;;;21.02;41.21;102193.06;5121868;27;20122;-31
2022/05/09 08:00:33;;;;;;;0.13;0.13;;;;;;;21.01;41.12;102186.69;5124632;27;20170;-32
2022/05/09 08:02:59;;;;;;;0.10;0.10;;;;;;;21.01;40.98;102180.31;5125130;27;20054;-32
2022/05/09 08:05:24;;;;;;;0.10;0.10;;;;;;;21.02;41.16;102185.59;5126290;27;20122;-31
2022/05/09 08:07:50;;;;;;;0.10;0.10;;;;;;;21.02;40.95;102179.22;5116032;27;20492;-31
2022/05/09 08:10:16;;;;;;;0.17;0.17;;;;;;;21.01;41.19;102185.84;5120203;27;20080;-32
2022/05/09 08:12:43;;;;;;;0.10;0.10;;;;;;;21.03;41.03;102191.97;5123730;27;20100;-31
2022/05/09 08:15:10;;;;;;;0.10;0.10;;;;;;;21.01;40.89;102191.41;5123821;27;20290;-32
2022/05/09 08:17:37;;;;;;;0.10;0.10;;;;;;;21.02;40.79;102190.28;5120271;27;20043;-32
2022/05/09 08:20:04;;;;;;;0.13;0.13;;;;;;;21.02;41.05;102193.88;5119733;27;20131;-31
2022/05/09 08:22:31;;;;;;;0.10;0.10;;;;;;;21.02;40.98;102191.13;5104026;27;20687;-30
2022/05/09 08:24:58;;;;;;;0.10;0.10;;;;;;;21.02;40.91;102188.34;5124068;27;20273;-31
2022/05/09 08:27:31;;;;;;;0.20;0.20;;;;;;;21.01;40.88;102181.16;5112776;27;20474;-31
2022/05/09 08:29:56;;;;;;;0.10;0.10;;;;;;;21.02;40.88;102187.53;5129251;27;20054;-30
2022/05/09 08:32:23;;;;;;;0.10;0.10;;;;;;;21.02;41.21;102177.28;5116107;27;20047;-31
2022/05/09 08:34:51;;;;;;;0.10;0.10;;;;;;;21.02;40.98;102184.75;5122547;27;20071;-33
2022/05/09 08:37:18;;;;;;;0.10;0.10;;;;;;;21.02;41.33;102181.97;5114584;27;20078;-31
2022/05/09 08:39:44;;;;;;;0.10;0.10;;;;;;;21.01;40.98;102178.38;5118686;27;20134;-31
2022/05/09 08:42:14;;;;;;;0.10;0.10;;;;;;;21.02;41.05;102182.81;5120118;27;20086;-30
2022/05/09 08:45:20;;;;;;;0.10;0.10;;;;;;;21.02;41.00;102190.28;5123855;27;20225;-30
2022/05/09 08:48:08;;;;;;;0.10;0.10;;;;;;;21.02;41.17;102184.75;5092406;27;20320;-30
2022/05/09 08:51:00;;;;;;;0.20;0.20;;;;;;;21.02;41.16;102174.50;5106198;27;20134;-28
2022/05/09 08:53:26;;;;;;;0.10;0.10;;;;;;;21.02;41.31;102176.44;5102947;27;20473;-31
2022/05/09 08:55:54;;;;;;;0.10;0.10;;;;;;;21.02;41.21;102174.50;5121667;27;20145;-30
2022/05/09 08:58:45;;;;;;;0.10;0.10;;;;;;;21.02;40.96;102179.22;5120718;27;20316;-29
2022/05/09 09:01:22;;;;;;;0.10;0.10;;;;;;;21.02;41.16;102173.66;5107220;27;20486;-29
2022/05/09 09:04:24;;;;;;;0.10;0.10;;;;;;;21.02;41.17;102170.91;5105116;27;20047;-29
2022/05/09 09:07:04;;;;;;;0.10;0.10;;;;;;;21.02;41.24;102166.19;5104925;27;20173;-29
2022/05/09 09:10:02;;;;;;;0.10;0.10;;;;;;;21.02;41.08;102168.13;5125180;27;20134;-30
2022/05/09 09:12:38;;;;;;;0.10;0.10;;;;;;;21.02;41.09;102162.59;5124951;27;20149;-29
2022/05/09 09:15:17;;;;;;;0.10;0.10;;;;;;;21.01;42.07;102172.00;5122869;27;20070;-29
2022/05/09 09:18:04;;;;;;;0.10;0.10;;;;;;;21.07;41.64;102164.56;5125886;27;20142;-29
2022/05/09 09:20:41;;;;;;;0.15;0.15;;;;;;;21.05;41.53;102160.13;5111532;27;20051;-30
2022/05/09 09:23:18;;;;;;;0.10;0.10;;;;;;;21.06;41.62;102163.75;5117694;27;20158;-29
2022/05/09 09:26:11;;;;;;;0.10;0.10;;;;;;;21.06;41.61;102155.44;5121807;27;20225;-29
2022/05/09 09:28:47;;;;;;;0.10;0.10;;;;;;;21.07;41.52;102148.81;5118186;27;20047;-32
2022/05/09 09:31:16;;;;;;;0.10;0.10;;;;;;;21.08;41.32;102149.66;5122385;27;20051;-30
2022/05/09 09:33:52;;;;;;;0.10;0.10;;;;;;;21.09;41.56;102157.69;5121709;27;20079;-30
2022/05/09 09:36:17;;;;;;;0.10;0.10;;;;;;;21.11;41.50;102154.63;5119088;27;21276;-29
2022/05/09 09:38:53;;;;;;;0.10;0.10;;;;;;;21.10;41.27;102153.81;5120197;27;20448;-29
2022/05/09 09:41:27;;;;;;;0.10;0.10;;;;;;;21.11;41.40;102151.88;5116911;27;20042;-29
2022/05/09 09:44:04;;;;;;;0.10;0.10;;;;;;;21.12;41.43;102148.84;5121718;27;20537;-30
2022/05/09 09:46:30;;;;;;;0.10;0.10;;;;;;;21.13;41.25;102147.75;5123549;27;20504;-30
2022/05/09 09:49:03;;;;;;;0.10;0.10;;;;;;;21.14;41.44;102152.19;5127600;27;20275;-29
2022/05/09 09:51:29;;;;;;;0.10;0.10;;;;;;;21.15;40.99;102147.47;5127157;27;20641;-30
2022/05/09 09:56:32;;;;;;;0.15;0.15;;;;;;;21.16;41.12;102141.69;5174668;27;20208;-28
2022/05/09 09:59:16;;;;;;;0.10;0.10;;;;;;;21.18;41.42;102138.63;5158621;27;20081;-27
2022/05/09 10:01:43;;;;;;;0.10;0.10;;;;;;;21.19;41.11;102134.75;5156132;27;20145;-30
2022/05/09 10:04:11;;;;;;;0.10;0.10;;;;;;;21.19;41.27;102126.44;5158418;27;20047;-31
2022/05/09 10:07:16;;;;;;;0.10;0.10;;;;;;;21.21;41.25;102127.03;5159005;27;20078;-29
2022/05/09 10:10:05;;;;;;;0.10;0.10;;;;;;;21.22;41.34;102126.75;5146027;27;20038;-32
2022/05/09 10:12:31;;;;;;;0.10;0.10;;;;;;;21.23;41.24;102130.34;5157547;27;20453;-31
2022/05/09 10:14:58;;;;;;;0.10;0.10;;;;;;;21.23;41.32;102125.66;5160835;27;20093;-30
2022/05/09 10:20:35;;;;;;;0.10;0.10;;;;;;;21.25;41.38;102120.69;5158983;27;20221;-28
2022/05/09 10:26:03;;;;;;;0.10;0.10;;;;;;;21.26;41.09;102111.28;5141931;27;20476;-28
2022/05/09 10:28:32;;;;;;;0.10;0.10;;;;;;;21.27;41.08;102110.16;5136424;27;20478;-28
2022/05/09 10:31:02;;;;;;;;;;;;;;;21.29;41.30;102104.38;5139000;27;20080;-30
2022/05/09 10:33:34;;;;;;;0.10;0.10;;;;;;;21.28;40.97;102106.28;5140087;27;20151;-27
2022/05/09 10:36:08;;;;;;;0.10;0.10;;;;;;;21.28;41.24;102103.50;5140013;27;20070;-28
2022/05/09 10:38:44;;;;;;;0.10;0.10;;;;;;;21.29;41.26;102099.66;5120278;27;20538;-28
2022/05/09 10:41:17;;;;;;;0.10;0.10;;;;;;;21.29;41.30;102094.13;5134813;27;20126;-31
2022/05/09 10:43:46;;;;;;;0.10;0.10;;;;;;;21.30;41.24;102104.09;5131508;27;20123;-30
2022/05/09 10:46:13;;;;;;;0.10;0.10;;;;;;;21.31;41.16;102093.84;5098697;27;20126;-29
2022/05/09 10:48:59;;;;;;;0.10;0.10;;;;;;;21.30;41.18;102098.56;5114128;27;20046;-30
2022/05/09 10:51:32;;;;;;;0.10;0.10;;;;;;;21.31;41.06;102093.84;5136335;27;20568;-31
2022/05/09 10:54:26;;;;;;;0.10;0.10;;;;;;;21.30;41.18;102089.41;5131462;27;20726;-32
2022/05/09 10:57:00;;;;;;;0.20;0.20;;;;;;;21.31;41.18;102082.75;5127440;27;20050;-31
2022/05/09 10:59:28;;;;;;;0.10;0.10;;;;;;;21.30;41.26;102081.94;5127302;27;20086;-31
2022/05/09 11:04:34;;;;;;;0.10;0.10;;;;;;;21.30;41.35;102075.56;5141165;27;20125;-28
2022/05/09 11:07:11;;;;;;;0.10;0.10;;;;;;;21.32;41.25;102075.31;5124938;27;20054;-28
2022/05/09 11:09:59;;;;;;;0.10;0.10;;;;;;;21.32;41.08;102073.38;5144392;27;20141;-28
2022/05/09 11:16:05;;;;;;;0.10;0.10;;;;;;;21.30;41.41;102067.25;5147230;27;20129;-28
2022/05/09 11:18:44;;;;;;;0.10;0.10;;;;;;;21.30;41.24;102065.31;5111350;27;20326;-29
2022/05/09 11:21:39;;;;;;;0.10;0.10;;;;;;;21.32;41.23;102053.97;5135494;27;20111;-28
2022/05/09 11:24:17;;;;;;;0.10;0.10;;;;;;;21.30;41.33;102051.44;5127373;27;20066;-28
2022/05/09 11:27:22;;;;;;;0.10;0.10;;;;;;;21.31;41.21;102049.50;5140421;27;20269;-28
2022/05/09 11:30:26;;;;;;;0.10;0.10;;;;;;;21.30;41.11;102043.13;5113610;27;20497;-29
2022/05/09 11:35:41;;;;;;;0.10;0.10;;;;;;;21.31;41.39;102041.19;5151147;27;21072;-29
2022/05/09 11:38:15;;;;;;;0.10;0.10;;;;;;;21.31;41.11;102032.88;5150949;27;20050;-28
2022/05/09 11:40:54;;;;;;;0.10;0.10;;;;;;;21.31;41.26;102035.66;5150530;27;20467;-28
2022/05/09 11:43:59;;;;;;;0.10;0.10;;;;;;;21.32;41.26;102036.53;5142766;27;20131;-28
2022/05/09 11:47:03;;;;;;;0.10;0.10;;;;;;;21.30;41.37;102037.59;5114720;27;20075;-27
2022/05/09 11:49:44;;;;;;;0.10;0.10;;;;;;;21.31;41.19;102030.13;5125282;27;20125;-28
2022/05/09 11:52:24;;;;;;;0.13;0.13;;;;;;;21.31;41.22;102021.81;5142179;27;20092;-29
2022/05/09 11:54:50;;;;;;;0.10;0.10;;;;;;;21.31;41.39;102019.03;5146262;27;20687;-28
2022/05/09 11:57:23;;;;;;;0.10;0.10;;;;;;;21.30;41.42;102007.13;5136177;27;20072;-28
2022/05/09 11:59:52;;;;;;;0.10;0.10;;;;;;;21.31;41.20;102010.72;5141082;27;20139;-28
2022/05/09 12:02:54;;;;;;;0.10;0.10;;;;;;;21.29;42.68;102011.00;5139313;27;20346;-30